Eships Dana — ZDJT6 — position and weather

sailwx.info

Track history (hours):
 
Tides and Currents Weather Stations Pressure Air Temp Water Temp Dewpoint Dewpoint Depression Visibility Wind Speed Wind Dir Waves Ship Positions

Eships Dana

Last reported at 2015-Apr-18 06:28 UTC. Time now 2015-Apr-18 07:15 UTC.
Position N 51°20' E 002°34'.

Length 116 m; draft 5.5 m.

Type: Tanker. MMSI: 236566000.

Date/timePositionNaut miles runAvg speedWind from/ knotsBaromVisibWave heightAir tempDewpointWater temp
2015-Apr-18 06:28N 51°20' E 002°34'0 0.0
2015-Apr-18 05:33N 51°20' E 002°34'0 0.0
2015-Apr-18 04:28N 51°20' E 002°34'0 0.0
2015-Apr-18 03:30N 51°20' E 002°34'0 0.0
2015-Apr-18 02:34N 51°20' E 002°34'0 0.1
2015-Apr-18 01:30N 51°20' E 002°34'0 0.1
2015-Apr-18 00:34N 51°20' E 002°34'0 0.2
2015-Apr-17 23:28N 51°20' E 002°34'0 0.0
2015-Apr-17 22:34N 51°20' E 002°34'0 0.0
2015-Apr-17 21:33N 51°20' E 002°34'0 0.0
2015-Apr-17 20:34N 51°20' E 002°34'0 0.0
2015-Apr-17 19:33N 51°20' E 002°34'0 0.0
2015-Apr-17 18:34N 51°20' E 002°34'6 5.9
2015-Apr-17 17:33N 51°22' E 002°42'1414.1
2015-Apr-17 16:33N 51°24' E 003°05'1716.7
2015-Apr-17 15:33N 51°25' E 003°31'1414.1
2015-Apr-17 14:33N 51°21' E 003°53'9 8.8
2015-Apr-17 13:33N 51°22' E 004°07'7 6.7
2015-Apr-17 12:33N 51°21' E 004°17'0 0.3
2015-Apr-17 11:33N 51°21' E 004°18'2 2.5
2015-Apr-17 10:33N 51°18' E 004°19'3 2.8
2015-Apr-17 09:31N 51°16' E 004°20'0 0.0
2015-Apr-17 08:31N 51°16' E 004°20'0 0.0
2015-Apr-17 07:31N 51°16' E 004°20'0 0.0
2015-Apr-17 06:31N 51°16' E 004°20'0 0.0
2015-Apr-17 05:31N 51°16' E 004°20'0 0.0
2015-Apr-17 04:31N 51°16' E 004°20'0 0.0
2015-Apr-17 03:31N 51°16' E 004°20'0 0.0
2015-Apr-17 02:31N 51°16' E 004°20'0 0.0
2015-Apr-17 01:28N 51°16' E 004°20'0 0.0
2015-Apr-17 00:31N 51°16' E 004°20'0 0.0
2015-Apr-16 23:28N 51°16' E 004°20'1 0.7
2015-Apr-16 22:33N 51°16' E 004°20'0 0.1
2015-Apr-16 21:30N 51°16' E 004°20'0 0.0
2015-Apr-16 20:33N 51°16' E 004°20'0 0.0
2015-Apr-16 19:33N 51°16' E 004°20'0 0.0
2015-Apr-16 18:33N 51°16' E 004°20'0 0.0
2015-Apr-16 17:33N 51°16' E 004°20'0 0.0
2015-Apr-16 16:33N 51°16' E 004°20'0 0.0
2015-Apr-16 15:33N 51°16' E 004°20'0 0.0
2015-Apr-16 14:24N 51°16' E 004°20'0 0.0
2015-Apr-16 13:33N 51°16' E 004°20'0 0.0
2015-Apr-16 12:33N 51°16' E 004°20'0 0.0
2015-Apr-16 11:33N 51°16' E 004°20'0 0.0
2015-Apr-16 10:33N 51°16' E 004°20'0 0.0
2015-Apr-16 09:33N 51°16' E 004°20'0 0.0
2015-Apr-16 08:33N 51°16' E 004°20'0 0.0
2015-Apr-16 07:33N 51°16' E 004°20'0 0.0
2015-Apr-16 06:33N 51°16' E 004°20'0 0.0
2015-Apr-16 05:33N 51°16' E 004°20'0 0.0
2015-Apr-16 04:33N 51°16' E 004°20'0 0.0
2015-Apr-16 03:33N 51°16' E 004°20'0 0.0
2015-Apr-16 02:33N 51°16' E 004°20'0 0.0
2015-Apr-16 01:24N 51°16' E 004°20'0 0.0
2015-Apr-16 00:33N 51°16' E 004°20'0 0.0
2015-Apr-15 23:30N 51°16' E 004°20'0 0.0
2015-Apr-15 22:33N 51°16' E 004°20'0 0.0
2015-Apr-15 21:33N 51°16' E 004°20'0 0.0
2015-Apr-15 20:33N 51°16' E 004°20'0 0.0
2015-Apr-15 19:33N 51°16' E 004°20'0 0.0
2015-Apr-15 18:30N 51°16' E 004°20'0 0.0
2015-Apr-15 17:33N 51°16' E 004°20'0 0.0
2015-Apr-15 16:33N 51°16' E 004°20'0 0.0
2015-Apr-15 15:33N 51°16' E 004°20'0 0.0
2015-Apr-15 14:33N 51°16' E 004°20'0 0.0
2015-Apr-15 13:33N 51°16' E 004°20'0 0.0
2015-Apr-15 12:33N 51°16' E 004°20'0 0.0
2015-Apr-15 11:33N 51°16' E 004°20'0 0.0
2015-Apr-15 10:33N 51°16' E 004°20'0 0.0
2015-Apr-15 09:33N 51°16' E 004°20'0 0.0
2015-Apr-15 08:33N 51°16' E 004°20'0 0.0
2015-Apr-15 07:27N 51°16' E 004°20'0 0.0
2015-Apr-15 06:30N 51°16' E 004°20'0 0.0
2015-Apr-15 05:33N 51°16' E 004°20'0 0.0
2015-Apr-15 04:33N 51°16' E 004°20'0 0.0
2015-Apr-15 03:30N 51°16' E 004°20'0 0.0
2015-Apr-15 02:30N 51°16' E 004°20'0 0.0
2015-Apr-15 01:30N 51°16' E 004°20'0 0.0
2015-Apr-15 00:33N 51°16' E 004°20'0 0.0
2015-Apr-14 23:33N 51°16' E 004°20'0 0.0
2015-Apr-14 22:33N 51°16' E 004°20'0 0.0
2015-Apr-14 21:33N 51°16' E 004°20'0 0.0
2015-Apr-14 20:33N 51°16' E 004°20'0 0.0
2015-Apr-14 19:33N 51°16' E 004°20'0 0.0
2015-Apr-14 18:33N 51°16' E 004°20'0 0.0
2015-Apr-14 17:33N 51°16' E 004°20'0 0.0
2015-Apr-14 16:33N 51°16' E 004°20'0 0.0
2015-Apr-14 15:33N 51°16' E 004°20'0 0.0
2015-Apr-14 14:33N 51°16' E 004°20'0 0.0
2015-Apr-14 13:30N 51°16' E 004°20'0 0.0
2015-Apr-14 12:33N 51°16' E 004°20'0 0.0
2015-Apr-14 11:33N 51°16' E 004°20'0 0.0
2015-Apr-14 10:33N 51°16' E 004°20'0 0.0
2015-Apr-14 09:33N 51°16' E 004°20'0 0.0
2015-Apr-14 08:33N 51°16' E 004°20'0 0.0
2015-Apr-14 07:33N 51°16' E 004°20'0 0.0
2015-Apr-14 06:33N 51°16' E 004°20'0 0.0
2015-Apr-14 05:33N 51°16' E 004°20'0 0.0
2015-Apr-14 04:33N 51°16' E 004°20'0 0.0
2015-Apr-14 03:33N 51°16' E 004°20'0 0.0
2015-Apr-14 02:33N 51°16' E 004°20'0 0.0
2015-Apr-14 01:33N 51°16' E 004°20'0 0.0
2015-Apr-14 00:33N 51°16' E 004°20'0 0.0
2015-Apr-13 23:33N 51°16' E 004°20'0 0.0
2015-Apr-13 22:33N 51°16' E 004°20'0 0.0
2015-Apr-13 21:33N 51°16' E 004°20'0 0.0
2015-Apr-13 20:33N 51°16' E 004°20'0 0.0
2015-Apr-13 19:33N 51°16' E 004°20'0 0.0
2015-Apr-13 18:33N 51°16' E 004°20'0 0.0
2015-Apr-13 17:30N 51°16' E 004°20'0 0.0
2015-Apr-13 16:30N 51°16' E 004°20'0 0.0
2015-Apr-13 15:30N 51°16' E 004°20'0 0.0
2015-Apr-13 14:33N 51°16' E 004°20'0 0.0
2015-Apr-13 13:30N 51°16' E 004°20'0 0.0
2015-Apr-13 12:30N 51°16' E 004°20'0 0.0
2015-Apr-13 11:30N 51°16' E 004°20'0 0.0
2015-Apr-13 10:30N 51°16' E 004°20'0 0.3
2015-Apr-13 09:34N 51°16' E 004°20'0 0.4
2015-Apr-13 08:33N 51°16' E 004°20'0 0.0
2015-Apr-13 07:27N 51°16' E 004°20'0 0.0
2015-Apr-13 06:30N 51°16' E 004°20'0 0.0
2015-Apr-13 05:27N 51°16' E 004°20'0 0.0
2015-Apr-13 04:33N 51°16' E 004°20'0 0.0
2015-Apr-13 03:30N 51°16' E 004°20'0 0.0
2015-Apr-13 02:33N 51°16' E 004°20'0 0.0
2015-Apr-13 01:33N 51°16' E 004°20'0 0.0
2015-Apr-13 00:33N 51°16' E 004°20'0 0.0
2015-Apr-12 23:18N 51°16' E 004°20'0 0.0
2015-Apr-12 22:33N 51°16' E 004°20'0 0.0
2015-Apr-12 21:33N 51°16' E 004°20'0 0.0
2015-Apr-12 20:30N 51°16' E 004°20'0 0.3
2015-Apr-12 19:30N 51°16' E 004°20'0 0.0
2015-Apr-12 18:24N 51°16' E 004°20'0 0.0
2015-Apr-12 17:30N 51°16' E 004°20'0 0.0
2015-Apr-12 16:33N 51°16' E 004°20'0 0.0
2015-Apr-12 15:33N 51°16' E 004°20'0 0.0
2015-Apr-12 14:30N 51°16' E 004°20'0 0.0
2015-Apr-12 13:27N 51°16' E 004°20'0 0.0
2015-Apr-12 12:33N 51°16' E 004°20'0 0.0
2015-Apr-12 11:33N 51°16' E 004°20'0 0.0
2015-Apr-12 10:27N 51°16' E 004°20'0 0.0
2015-Apr-12 09:33N 51°16' E 004°20'0 0.0
2015-Apr-12 08:33N 51°16' E 004°20'0 0.0
2015-Apr-12 07:33N 51°16' E 004°20'0 0.0
2015-Apr-12 06:27N 51°16' E 004°20'0 0.0
2015-Apr-12 05:33N 51°16' E 004°20'0 0.0
2015-Apr-12 04:33N 51°16' E 004°20'0 0.0
2015-Apr-12 03:24N 51°16' E 004°20'0 0.0
2015-Apr-12 02:33N 51°16' E 004°20'0 0.0
2015-Apr-12 01:33N 51°16' E 004°20'0 0.0
2015-Apr-12 00:30N 51°16' E 004°20'0 0.0
2015-Apr-11 23:30N 51°16' E 004°20'0 0.0
2015-Apr-11 22:33N 51°16' E 004°20'0 0.0
2015-Apr-11 21:33N 51°16' E 004°20'0 0.0
2015-Apr-11 20:33N 51°16' E 004°20'0 0.0
2015-Apr-11 19:33N 51°16' E 004°20'0 0.0
2015-Apr-11 18:33N 51°16' E 004°20'0 0.0
2015-Apr-11 17:33N 51°16' E 004°20'0 0.0
2015-Apr-11 16:33N 51°16' E 004°20'0 0.0
2015-Apr-11 15:33N 51°16' E 004°20'0 0.0
2015-Apr-11 14:33N 51°16' E 004°20'0 0.0
2015-Apr-11 13:33N 51°16' E 004°20'0 0.0
2015-Apr-11 12:30N 51°16' E 004°20'0 0.0
2015-Apr-11 11:33N 51°16' E 004°20'0 0.0
2015-Apr-11 10:33N 51°16' E 004°20'0 0.0
2015-Apr-11 09:33N 51°16' E 004°20'0 0.0
2015-Apr-11 08:33N 51°16' E 004°20'0 0.2
2015-Apr-11 07:33N 51°16' E 004°20'5 5.1
2015-Apr-11 06:34N 51°21' E 004°17'0 0.0
2015-Apr-11 05:34N 51°21' E 004°17'3 2.8
2015-Apr-11 04:33N 51°22' E 004°13'8 7.5
2015-Apr-11 03:33N 51°25' E 004°02'1010.3
2015-Apr-11 02:33N 51°21' E 003°46'9 9.2
2015-Apr-11 01:33N 51°25' E 003°33'1312.9
2015-Apr-11 00:34N 51°24' E 003°12'8 8.4
2015-Apr-10 23:33N 51°31' E 003°04'1514.1
2015-Apr-10 22:30N 51°44' E 003°14'1111.2
2015-Apr-10 21:33N 51°55' E 003°19'1413.6
2015-Apr-10 20:33N 52°08' E 003°21'2812.9
2015-Apr-10 18:25N 52°35' E 003°30'1112.7
2015-Apr-10 17:33N 52°44' E 003°40'1513.6
2015-Apr-10 16:26N 52°56' E 003°56'1314.7
2015-Apr-10 15:33N 53°05' E 004°12'1514.6
2015-Apr-10 14:34N 53°16' E 004°27'1514.8
2015-Apr-10 13:34N 53°30' E 004°36'1414.3
2015-Apr-10 12:33N 53°44' E 004°43'1413.8
2015-Apr-10 11:32N 53°57' E 004°50'1413.3
2015-Apr-10 10:31N 54°09' E 004°60'1413.6
2015-Apr-10 09:29N 54°20' E 005°15'1613.5
2015-Apr-10 08:18N 54°33' E 005°31'23513.7
2015-Apr-09 15:08N 58°28' E 005°10'1414.0
2015-Apr-09 14:09N 58°42' E 005°14'813.8
2015-Apr-09 13:33N 58°50' E 005°16'1313.2
2015-Apr-09 12:34N 59°03' E 005°19'1110.9
2015-Apr-09 11:33N 59°12' E 005°32'4 2.2
2015-Apr-09 09:32N 59°16' E 005°30'0 0.0
2015-Apr-09 08:32N 59°16' E 005°30'0 0.0
2015-Apr-09 01:05N 59°16' E 005°30'0 0.0
2015-Apr-09 00:33N 59°16' E 005°30'2 2.3
2015-Apr-08 23:33N 59°14' E 005°30'0 0.1
2015-Apr-08 22:24N 59°14' E 005°31'0 0.0
2015-Apr-08 21:30N 59°14' E 005°31'0 0.0
2015-Apr-08 20:03N 59°14' E 005°31'0 0.0
2015-Apr-08 19:27N 59°14' E 005°31'0 0.0
2015-Apr-08 18:30N 59°14' E 005°31'0 0.0
2015-Apr-08 17:27N 59°14' E 005°31'0 0.0
2015-Apr-08 16:24N 59°14' E 005°31'0 0.0
2015-Apr-08 15:33N 59°14' E 005°31'0 0.0
2015-Apr-08 14:33N 59°14' E 005°31'0 0.0
2015-Apr-08 13:33N 59°14' E 005°31'6 5.7
2015-Apr-08 12:33N 59°08' E 005°30'1010.2
2015-Apr-08 11:33N 58°60' E 005°19'3 3.1
2015-Apr-08 10:33N 58°58' E 005°15'2 2.0
2015-Apr-08 09:33N 58°57' E 005°18'1 0.7
2015-Apr-08 08:33N 58°57' E 005°17'1 0.9
2015-Apr-08 07:33N 58°57' E 005°16'1 1.0
2015-Apr-08 06:33N 58°58' E 005°14'  
Track history (hours):
 
Tides and Currents Weather Stations Pressure Air Temp Water Temp Dewpoint Dewpoint Depression Visibility Wind Speed Wind Dir Waves Ship Positions

Eships Dana

Last reported at 2015-Apr-18 06:28 UTC. Time now 2015-Apr-18 07:15 UTC.
Position N 51°20' E 002°34'.

Length 116 m; draft 5.5 m.

Type: Tanker. MMSI: 236566000.

Date/timePositionNaut miles runAvg speedWind from/ knotsBaromVisibWave heightAir tempDewpointWater temp
2015-Apr-18 06:28N 51°20' E 002°34'0 0.0
2015-Apr-18 05:33N 51°20' E 002°34'0 0.0
2015-Apr-18 04:28N 51°20' E 002°34'0 0.0
2015-Apr-18 03:30N 51°20' E 002°34'0 0.0
2015-Apr-18 02:34N 51°20' E 002°34'0 0.1
2015-Apr-18 01:30N 51°20' E 002°34'0 0.1
2015-Apr-18 00:34N 51°20' E 002°34'0 0.2
2015-Apr-17 23:28N 51°20' E 002°34'0 0.0
2015-Apr-17 22:34N 51°20' E 002°34'0 0.0
2015-Apr-17 21:33N 51°20' E 002°34'0 0.0
2015-Apr-17 20:34N 51°20' E 002°34'0 0.0
2015-Apr-17 19:33N 51°20' E 002°34'0 0.0
2015-Apr-17 18:34N 51°20' E 002°34'6 5.9
2015-Apr-17 17:33N 51°22' E 002°42'1414.1
2015-Apr-17 16:33N 51°24' E 003°05'1716.7
2015-Apr-17 15:33N 51°25' E 003°31'1414.1
2015-Apr-17 14:33N 51°21' E 003°53'9 8.8
2015-Apr-17 13:33N 51°22' E 004°07'7 6.7
2015-Apr-17 12:33N 51°21' E 004°17'0 0.3
2015-Apr-17 11:33N 51°21' E 004°18'2 2.5
2015-Apr-17 10:33N 51°18' E 004°19'3 2.8
2015-Apr-17 09:31N 51°16' E 004°20'0 0.0
2015-Apr-17 08:31N 51°16' E 004°20'0 0.0
2015-Apr-17 07:31N 51°16' E 004°20'0 0.0
2015-Apr-17 06:31N 51°16' E 004°20'0 0.0
2015-Apr-17 05:31N 51°16' E 004°20'0 0.0
2015-Apr-17 04:31N 51°16' E 004°20'0 0.0
2015-Apr-17 03:31N 51°16' E 004°20'0 0.0
2015-Apr-17 02:31N 51°16' E 004°20'0 0.0
2015-Apr-17 01:28N 51°16' E 004°20'0 0.0
2015-Apr-17 00:31N 51°16' E 004°20'0 0.0
2015-Apr-16 23:28N 51°16' E 004°20'1 0.7
2015-Apr-16 22:33N 51°16' E 004°20'0 0.1
2015-Apr-16 21:30N 51°16' E 004°20'0 0.0
2015-Apr-16 20:33N 51°16' E 004°20'0 0.0
2015-Apr-16 19:33N 51°16' E 004°20'0 0.0
2015-Apr-16 18:33N 51°16' E 004°20'0 0.0
2015-Apr-16 17:33N 51°16' E 004°20'0 0.0
2015-Apr-16 16:33N 51°16' E 004°20'0 0.0
2015-Apr-16 15:33N 51°16' E 004°20'0 0.0
2015-Apr-16 14:24N 51°16' E 004°20'0 0.0
2015-Apr-16 13:33N 51°16' E 004°20'0 0.0
2015-Apr-16 12:33N 51°16' E 004°20'0 0.0
2015-Apr-16 11:33N 51°16' E 004°20'0 0.0
2015-Apr-16 10:33N 51°16' E 004°20'0 0.0
2015-Apr-16 09:33N 51°16' E 004°20'0 0.0
2015-Apr-16 08:33N 51°16' E 004°20'0 0.0
2015-Apr-16 07:33N 51°16' E 004°20'0 0.0
2015-Apr-16 06:33N 51°16' E 004°20'0 0.0
2015-Apr-16 05:33N 51°16' E 004°20'0 0.0
2015-Apr-16 04:33N 51°16' E 004°20'0 0.0
2015-Apr-16 03:33N 51°16' E 004°20'0 0.0
2015-Apr-16 02:33N 51°16' E 004°20'0 0.0
2015-Apr-16 01:24N 51°16' E 004°20'0 0.0
2015-Apr-16 00:33N 51°16' E 004°20'0 0.0
2015-Apr-15 23:30N 51°16' E 004°20'0 0.0
2015-Apr-15 22:33N 51°16' E 004°20'0 0.0
2015-Apr-15 21:33N 51°16' E 004°20'0 0.0
2015-Apr-15 20:33N 51°16' E 004°20'0 0.0
2015-Apr-15 19:33N 51°16' E 004°20'0 0.0
2015-Apr-15 18:30N 51°16' E 004°20'0 0.0
2015-Apr-15 17:33N 51°16' E 004°20'0 0.0
2015-Apr-15 16:33N 51°16' E 004°20'0 0.0
2015-Apr-15 15:33N 51°16' E 004°20'0 0.0
2015-Apr-15 14:33N 51°16' E 004°20'0 0.0
2015-Apr-15 13:33N 51°16' E 004°20'0 0.0
2015-Apr-15 12:33N 51°16' E 004°20'0 0.0
2015-Apr-15 11:33N 51°16' E 004°20'0 0.0
2015-Apr-15 10:33N 51°16' E 004°20'0 0.0
2015-Apr-15 09:33N 51°16' E 004°20'0 0.0
2015-Apr-15 08:33N 51°16' E 004°20'0 0.0
2015-Apr-15 07:27N 51°16' E 004°20'0 0.0
2015-Apr-15 06:30N 51°16' E 004°20'0 0.0
2015-Apr-15 05:33N 51°16' E 004°20'0 0.0
2015-Apr-15 04:33N 51°16' E 004°20'0 0.0
2015-Apr-15 03:30N 51°16' E 004°20'0 0.0
2015-Apr-15 02:30N 51°16' E 004°20'0 0.0
2015-Apr-15 01:30N 51°16' E 004°20'0 0.0
2015-Apr-15 00:33N 51°16' E 004°20'0 0.0
2015-Apr-14 23:33N 51°16' E 004°20'0 0.0
2015-Apr-14 22:33N 51°16' E 004°20'0 0.0
2015-Apr-14 21:33N 51°16' E 004°20'0 0.0
2015-Apr-14 20:33N 51°16' E 004°20'0 0.0
2015-Apr-14 19:33N 51°16' E 004°20'0 0.0
2015-Apr-14 18:33N 51°16' E 004°20'0 0.0
2015-Apr-14 17:33N 51°16' E 004°20'0 0.0
2015-Apr-14 16:33N 51°16' E 004°20'0 0.0
2015-Apr-14 15:33N 51°16' E 004°20'0 0.0
2015-Apr-14 14:33N 51°16' E 004°20'0 0.0
2015-Apr-14 13:30N 51°16' E 004°20'0 0.0
2015-Apr-14 12:33N 51°16' E 004°20'0 0.0
2015-Apr-14 11:33N 51°16' E 004°20'0 0.0
2015-Apr-14 10:33N 51°16' E 004°20'0 0.0
2015-Apr-14 09:33N 51°16' E 004°20'0 0.0
2015-Apr-14 08:33N 51°16' E 004°20'0 0.0
2015-Apr-14 07:33N 51°16' E 004°20'0 0.0
2015-Apr-14 06:33N 51°16' E 004°20'0 0.0
2015-Apr-14 05:33N 51°16' E 004°20'0 0.0
2015-Apr-14 04:33N 51°16' E 004°20'0 0.0
2015-Apr-14 03:33N 51°16' E 004°20'0 0.0
2015-Apr-14 02:33N 51°16' E 004°20'0 0.0
2015-Apr-14 01:33N 51°16' E 004°20'0 0.0
2015-Apr-14 00:33N 51°16' E 004°20'0 0.0
2015-Apr-13 23:33N 51°16' E 004°20'0 0.0
2015-Apr-13 22:33N 51°16' E 004°20'0 0.0
2015-Apr-13 21:33N 51°16' E 004°20'0 0.0
2015-Apr-13 20:33N 51°16' E 004°20'0 0.0
2015-Apr-13 19:33N 51°16' E 004°20'0 0.0
2015-Apr-13 18:33N 51°16' E 004°20'0 0.0
2015-Apr-13 17:30N 51°16' E 004°20'0 0.0
2015-Apr-13 16:30N 51°16' E 004°20'0 0.0
2015-Apr-13 15:30N 51°16' E 004°20'0 0.0
2015-Apr-13 14:33N 51°16' E 004°20'0 0.0
2015-Apr-13 13:30N 51°16' E 004°20'0 0.0
2015-Apr-13 12:30N 51°16' E 004°20'0 0.0
2015-Apr-13 11:30N 51°16' E 004°20'0 0.0
2015-Apr-13 10:30N 51°16' E 004°20'0 0.3
2015-Apr-13 09:34N 51°16' E 004°20'0 0.4
2015-Apr-13 08:33N 51°16' E 004°20'0 0.0
2015-Apr-13 07:27N 51°16' E 004°20'0 0.0
2015-Apr-13 06:30N 51°16' E 004°20'0 0.0
2015-Apr-13 05:27N 51°16' E 004°20'0 0.0
2015-Apr-13 04:33N 51°16' E 004°20'0 0.0
2015-Apr-13 03:30N 51°16' E 004°20'0 0.0
2015-Apr-13 02:33N 51°16' E 004°20'0 0.0
2015-Apr-13 01:33N 51°16' E 004°20'0 0.0
2015-Apr-13 00:33N 51°16' E 004°20'0 0.0
2015-Apr-12 23:18N 51°16' E 004°20'0 0.0
2015-Apr-12 22:33N 51°16' E 004°20'0 0.0
2015-Apr-12 21:33N 51°16' E 004°20'0 0.0
2015-Apr-12 20:30N 51°16' E 004°20'0 0.3
2015-Apr-12 19:30N 51°16' E 004°20'0 0.0
2015-Apr-12 18:24N 51°16' E 004°20'0 0.0
2015-Apr-12 17:30N 51°16' E 004°20'0 0.0
2015-Apr-12 16:33N 51°16' E 004°20'0 0.0
2015-Apr-12 15:33N 51°16' E 004°20'0 0.0
2015-Apr-12 14:30N 51°16' E 004°20'0 0.0
2015-Apr-12 13:27N 51°16' E 004°20'0 0.0
2015-Apr-12 12:33N 51°16' E 004°20'0 0.0
2015-Apr-12 11:33N 51°16' E 004°20'0 0.0
2015-Apr-12 10:27N 51°16' E 004°20'0 0.0
2015-Apr-12 09:33N 51°16' E 004°20'0 0.0
2015-Apr-12 08:33N 51°16' E 004°20'0 0.0
2015-Apr-12 07:33N 51°16' E 004°20'0 0.0
2015-Apr-12 06:27N 51°16' E 004°20'0 0.0
2015-Apr-12 05:33N 51°16' E 004°20'0 0.0
2015-Apr-12 04:33N 51°16' E 004°20'0 0.0
2015-Apr-12 03:24N 51°16' E 004°20'0 0.0
2015-Apr-12 02:33N 51°16' E 004°20'0 0.0
2015-Apr-12 01:33N 51°16' E 004°20'0 0.0
2015-Apr-12 00:30N 51°16' E 004°20'0 0.0
2015-Apr-11 23:30N 51°16' E 004°20'0 0.0
2015-Apr-11 22:33N 51°16' E 004°20'0 0.0
2015-Apr-11 21:33N 51°16' E 004°20'0 0.0
2015-Apr-11 20:33N 51°16' E 004°20'0 0.0
2015-Apr-11 19:33N 51°16' E 004°20'0 0.0
2015-Apr-11 18:33N 51°16' E 004°20'0 0.0
2015-Apr-11 17:33N 51°16' E 004°20'0 0.0
2015-Apr-11 16:33N 51°16' E 004°20'0 0.0
2015-Apr-11 15:33N 51°16' E 004°20'0 0.0
2015-Apr-11 14:33N 51°16' E 004°20'0 0.0
2015-Apr-11 13:33N 51°16' E 004°20'0 0.0
2015-Apr-11 12:30N 51°16' E 004°20'0 0.0
2015-Apr-11 11:33N 51°16' E 004°20'0 0.0
2015-Apr-11 10:33N 51°16' E 004°20'0 0.0
2015-Apr-11 09:33N 51°16' E 004°20'0 0.0
2015-Apr-11 08:33N 51°16' E 004°20'0 0.2
2015-Apr-11 07:33N 51°16' E 004°20'5 5.1
2015-Apr-11 06:34N 51°21' E 004°17'0 0.0
2015-Apr-11 05:34N 51°21' E 004°17'3 2.8
2015-Apr-11 04:33N 51°22' E 004°13'8 7.5
2015-Apr-11 03:33N 51°25' E 004°02'1010.3
2015-Apr-11 02:33N 51°21' E 003°46'9 9.2
2015-Apr-11 01:33N 51°25' E 003°33'1312.9
2015-Apr-11 00:34N 51°24' E 003°12'8 8.4
2015-Apr-10 23:33N 51°31' E 003°04'1514.1
2015-Apr-10 22:30N 51°44' E 003°14'1111.2
2015-Apr-10 21:33N 51°55' E 003°19'1413.6
2015-Apr-10 20:33N 52°08' E 003°21'2812.9
2015-Apr-10 18:25N 52°35' E 003°30'1112.7
2015-Apr-10 17:33N 52°44' E 003°40'1513.6
2015-Apr-10 16:26N 52°56' E 003°56'1314.7
2015-Apr-10 15:33N 53°05' E 004°12'1514.6
2015-Apr-10 14:34N 53°16' E 004°27'1514.8
2015-Apr-10 13:34N 53°30' E 004°36'1414.3
2015-Apr-10 12:33N 53°44' E 004°43'1413.8
2015-Apr-10 11:32N 53°57' E 004°50'1413.3
2015-Apr-10 10:31N 54°09' E 004°60'1413.6
2015-Apr-10 09:29N 54°20' E 005°15'1613.5
2015-Apr-10 08:18N 54°33' E 005°31'23513.7
2015-Apr-09 15:08N 58°28' E 005°10'1414.0
2015-Apr-09 14:09N 58°42' E 005°14'813.8
2015-Apr-09 13:33N 58°50' E 005°16'1313.2
2015-Apr-09 12:34N 59°03' E 005°19'1110.9
2015-Apr-09 11:33N 59°12' E 005°32'4 2.2
2015-Apr-09 09:32N 59°16' E 005°30'0 0.0
2015-Apr-09 08:32N 59°16' E 005°30'0 0.0
2015-Apr-09 01:05N 59°16' E 005°30'0 0.0
2015-Apr-09 00:33N 59°16' E 005°30'2 2.3
2015-Apr-08 23:33N 59°14' E 005°30'0 0.1
2015-Apr-08 22:24N 59°14' E 005°31'0 0.0
2015-Apr-08 21:30N 59°14' E 005°31'0 0.0
2015-Apr-08 20:03N 59°14' E 005°31'0 0.0
2015-Apr-08 19:27N 59°14' E 005°31'0 0.0
2015-Apr-08 18:30N 59°14' E 005°31'0 0.0
2015-Apr-08 17:27N 59°14' E 005°31'0 0.0
2015-Apr-08 16:24N 59°14' E 005°31'0 0.0
2015-Apr-08 15:33N 59°14' E 005°31'0 0.0
2015-Apr-08 14:33N 59°14' E 005°31'0 0.0
2015-Apr-08 13:33N 59°14' E 005°31'6 5.7
2015-Apr-08 12:33N 59°08' E 005°30'1010.2
2015-Apr-08 11:33N 58°60' E 005°19'3 3.1
2015-Apr-08 10:33N 58°58' E 005°15'2 2.0
2015-Apr-08 09:33N 58°57' E 005°18'1 0.7
2015-Apr-08 08:33N 58°57' E 005°17'1 0.9
2015-Apr-08 07:33N 58°57' E 005°16'1 1.0
2015-Apr-08 06:33N 58°58' E 005°14'  

Dump ship's entire track history